Terminal Aerodrome Forecast
Issued by NWS

Home | Current Version | Previous Version | Text Only | Print | Product List | Glossary On
Versions: 1 2 3 4 5 6 7 8 9 10 11 12 13 14 15 16 17 18
000
FTUS43 KDVN 271131
TAFBRL
TAF
KBRL 271131Z 2712/2812 06004KT P6SM SCT250
      TEMPO 2712/2713 2SM BR BKN002
     FM271500 10006KT P6SM SCT040
     FM280700 13005KT 5SM BR SCT250=

USA.gov is the U.S. government's official web portal to all federal, state and local government web resources and services.